Tuesday, July 28, 2015, 8:35 PM EDT

KNHK, Nas Patuxent River Md

Location: Patuxent River, MD, United States Lat: 38.3
Local Time: 8:35 PM EDT ( 0:35 GMT) Lon: -76.4
Time Zone: US/Eastern Elev: 39 ft

Show me the last for .
Show Decoded

2015-07-28 19:52 METAR KNHK 282352Z 00000KT 10SM FEW035 FEW140 BKN250 26/22 A2996 RMK AO2 SLP145
                 CB DSNT NW T2 SET T02610222 10300 20261 56006 =
2015-07-28 18:52 METAR KNHK 282252Z 22005KT 10SM FEW025 FEW090 SCT250 27/22 A2997 RMK AO2 SLP148
                 CB DSNT NW T2 SET T02720222 =
2015-07-28 16:52 METAR KNHK 282052Z COR 22011G15KT 10SM FEW020 FEW035 SCT070 SCT130 29/23 A2998
                 RMK AO2 SLP151 CB DSNT SE T2 SET T02940233 55001 =
2015-07-28 15:52 METAR KNHK 281952Z 15010KT 10SM FEW020 SCT030TCU SCT090 29/24 A2997 RMK AO2
                 SLP149 TCU SE T2 SET T02940244 =
2015-07-28 14:52 METAR KNHK 281852Z 14009KT 10SM FEW020 FEW030 SCT250 29/24 A2997 RMK AO2 SLP149
                 CB DSNT S T2 SET T02940239 =
2015-07-28 13:52 METAR KNHK 281752Z 12008KT 10SM FEW030 FEW080 29/23 A2998 RMK AO2 SLP152 CB DSNT
                 S T2 SET T02890228 10294 20250 58009 =
2015-07-28 12:52 METAR KNHK 281652Z 10005KT 10SM FEW025 29/23 A3000 RMK AO2 SLP160 TCU DSNT W
                 T02890228 =
2015-07-28 11:52 METAR KNHK 281552Z 10005KT 10SM FEW022 28/23 A3001 RMK AO2 SLP162 T02780228 =
2015-07-28 10:52 METAR KNHK 281452Z 09005KT 10SM FEW020 SCT040 28/23 A3001 RMK AO2 SLP161
                 T02780233 58000 =
2015-07-28 09:52 METAR KNHK 281352Z 00000KT 10SM SCT040 28/23 A3001 RMK AO2 SLP162 T02780228 =
2015-07-28 08:52 METAR KNHK 281252Z 23006KT 10SM FEW045 26/22 A3001 RMK AO2 SLP163 T02610222 =
2015-07-28 07:52 METAR KNHK 281152Z 19004KT 10SM FEW045 25/22 A3001 RMK AO2 SLP162 T02500217
                 10250 20211 53005 =
2015-07-28 06:52 METAR KNHK 281052Z 00000KT 10SM FEW050 23/22 A3001 RMK AO2 SLP161 T02280217 =
2015-07-28 05:52 METAR KNHK 280952Z 00000KT 10SM CLR 22/21 A2999 RMK AO2 SLP156 T02220211 =
2015-07-28 03:52 METAR KNHK 280752Z AUTO 00000KT 10SM SCT045 BKN055 23/21 A3000 RMK AO2 SLP160
                 T02280211 =
2015-07-28 02:52 METAR KNHK 280652Z AUTO 00000KT 10SM BKN043 OVC050 23/21 A3001 RMK AO2 SLP162
                 T02280211 =
2015-07-28 00:52 METAR KNHK 280452Z AUTO 23004KT 10SM CLR 22/21 A3000 RMK AO2 SLP160 T02220206
                 402940222 =
2015-07-27 23:52 METAR KNHK 280352Z AUTO 00000KT 10SM CLR 23/21 A3001 RMK AO2 SLP162 T02280206 =
2015-07-27 22:52 METAR KNHK 280252Z 23006KT 10SM FEW050 24/22 A3000 RMK AO2 SLP160 T2 SET 60000
                 T02440222 51012 =
2015-07-27 21:52 METAR KNHK 280152Z 21005KT 10SM FEW035 SCT060 26/22 A3000 RMK AO2 RAB21E50
                 TSB32E50 SLP159 CB DSNT SW T1 SET P0000 T02560222 =
2015-07-27 21:50 METAR KNHK 280150Z 21005KT 10SM FEW035 SCT060 26/22 A3000 RMK AO2 RAB21E50
                 TSB32E50 CB DSNT SW T1 SET P0000 =
2015-07-27 21:32 METAR KNHK 280132Z 18006KT 10SM -TSRA SCT035CB BKN050 BKN070 26/22 A3000 RMK AO2
                 RAB21 TSB32 OCNL LTGIC SW TS SW MOV SE T1 SET P0000 T02610222 =
2015-07-27 20:52 METAR KNHK 280052Z 17005KT 10SM BKN045 BKN060 27/22 A2998 RMK AO2 SLP154 T2 SET
                 T02670217 =

Support USWX by starting your Amazon purchase here.